createdAt,value
2022-09-09T00:01:25.403Z,1.38
2022-09-09T00:04:00.922Z,1.33
2022-09-09T00:06:45.962Z,1.10
2022-09-09T00:09:16.733Z,1.20
2022-09-09T00:11:54.471Z,1.45
2022-09-09T00:14:38.298Z,1.30
2022-09-09T00:17:23.799Z,1.38
2022-09-09T00:20:41.254Z,1.45
2022-09-09T00:23:15.511Z,1.30
2022-09-09T00:25:52.789Z,1.15
2022-09-09T00:28:23.583Z,1.30
2022-09-09T00:30:50.215Z,0.90
2022-09-09T00:33:24.106Z,1.27
2022-09-09T00:35:57.799Z,1.27
2022-09-09T00:38:33.406Z,1.15
2022-09-09T00:41:10.605Z,1.02
2022-09-09T00:43:39.599Z,1.40
2022-09-09T00:46:21.005Z,0.98
2022-09-09T00:49:23.021Z,0.90
2022-09-09T00:52:19.349Z,1.08
2022-09-09T00:55:07.275Z,2.15
2022-09-09T00:57:36.138Z,0.90
2022-09-09T01:00:27.428Z,1.10
2022-09-09T01:03:18.556Z,0.80
2022-09-09T01:05:47.718Z,1.00
2022-09-09T01:08:35.809Z,0.70
2022-09-09T01:11:03.391Z,0.80
2022-09-09T01:13:32.636Z,1.08
2022-09-09T01:16:02.043Z,1.10
2022-09-09T01:18:37.832Z,0.82
2022-09-09T01:21:19.502Z,1.08
2022-09-09T01:23:57.149Z,0.60
2022-09-09T01:26:42.724Z,1.00
2022-09-09T01:31:38.514Z,0.75
2022-09-09T01:34:16.162Z,0.90
2022-09-09T01:36:54.502Z,0.75
2022-09-09T01:39:21.940Z,0.60
2022-09-09T01:41:48.737Z,1.10
2022-09-09T01:44:15.777Z,0.80
2022-09-09T01:46:42.415Z,0.68
2022-09-09T01:49:10.019Z,0.80
2022-09-09T01:51:39.049Z,0.77
2022-09-09T01:54:06.392Z,0.73
2022-09-09T01:56:46.165Z,0.88
2022-09-09T01:59:28.022Z,0.95
2022-09-09T02:02:19.247Z,0.85
2022-09-09T02:04:49.467Z,0.55
2022-09-09T02:07:40.612Z,0.82
2022-09-09T02:10:17.453Z,0.85
2022-09-09T02:12:50.522Z,0.85
2022-09-09T02:15:41.283Z,0.60
2022-09-09T02:18:11.552Z,1.00
2022-09-09T02:20:39.415Z,0.80
2022-09-09T02:23:09.697Z,0.70
2022-09-09T02:25:38.160Z,0.50
2022-09-09T02:28:10.650Z,0.90
2022-09-09T02:30:39.570Z,0.57
2022-09-09T02:33:08.919Z,0.90
2022-09-09T02:35:38.645Z,0.60
2022-09-09T02:38:10.263Z,0.70
2022-09-09T02:40:36.963Z,0.70
2022-09-09T02:43:04.061Z,0.80
2022-09-09T02:45:40.977Z,0.70
2022-09-09T02:48:15.224Z,1.00
2022-09-09T02:50:57.310Z,0.60
2022-09-09T02:53:40.761Z,0.73
2022-09-09T02:56:16.050Z,0.75
2022-09-09T03:01:09.912Z,0.73
2022-09-09T03:03:36.847Z,0.80
2022-09-09T03:06:03.554Z,0.70
2022-09-09T03:08:30.271Z,0.80
2022-09-09T03:11:02.426Z,1.05
2022-09-09T03:13:29.095Z,0.70
2022-09-09T03:15:55.838Z,0.73
2022-09-09T03:18:22.446Z,0.98
2022-09-09T03:20:49.605Z,0.60
2022-09-09T03:23:16.245Z,0.57
2022-09-09T03:25:50.694Z,0.75
2022-09-09T03:28:17.272Z,0.52
2022-09-09T03:30:44.099Z,0.80
2022-09-09T03:33:10.944Z,0.60
2022-09-09T03:35:37.556Z,0.63
2022-09-09T03:38:04.179Z,0.52
2022-09-09T03:40:32.064Z,0.52
2022-09-09T03:42:58.558Z,0.80
2022-09-09T03:45:25.112Z,0.63
2022-09-09T03:47:51.695Z,0.60
2022-09-09T03:50:19.598Z,0.60
2022-09-09T03:52:47.063Z,0.60
2022-09-09T03:55:13.659Z,1.02
2022-09-09T03:57:40.154Z,0.70
2022-09-09T04:00:08.688Z,0.65
2022-09-09T04:02:35.414Z,0.82
2022-09-09T04:05:02.132Z,0.73
2022-09-09T04:07:29.183Z,0.70
2022-09-09T04:09:55.716Z,0.93
2022-09-09T04:12:23.424Z,0.77
2022-09-09T04:14:50.081Z,0.80
2022-09-09T04:17:17.174Z,0.77
2022-09-09T04:19:43.736Z,0.82
2022-09-09T04:22:10.559Z,0.80
2022-09-09T04:24:37.107Z,0.90
2022-09-09T04:27:03.961Z,0.95
2022-09-09T04:29:30.536Z,0.60
2022-09-09T04:31:57.259Z,0.77
2022-09-09T04:34:23.799Z,0.85
2022-09-09T04:36:50.331Z,0.98
2022-09-09T04:39:16.855Z,1.00
2022-09-09T04:41:43.477Z,1.00
2022-09-09T04:44:11.157Z,0.77
2022-09-09T04:46:37.737Z,1.05
2022-09-09T04:49:04.366Z,0.80
2022-09-09T04:51:32.222Z,0.60
2022-09-09T04:53:58.806Z,0.70
2022-09-09T04:56:27.869Z,1.02
2022-09-09T04:58:55.350Z,0.80
2022-09-09T05:01:23.598Z,0.98
2022-09-09T05:03:50.282Z,0.95
2022-09-09T05:06:19.705Z,1.15
2022-09-09T05:08:46.775Z,1.10
2022-09-09T05:11:17.433Z,1.08
2022-09-09T05:13:45.120Z,0.65
2022-09-09T05:16:12.493Z,0.80
2022-09-09T05:18:40.244Z,0.70
2022-09-09T05:21:07.580Z,0.70
2022-09-09T05:23:38.561Z,1.02
2022-09-09T05:26:06.732Z,0.70
2022-09-09T05:28:35.923Z,0.90
2022-09-09T05:31:05.881Z,0.70
2022-09-09T05:33:34.241Z,0.85
2022-09-09T05:36:09.172Z,0.70
2022-09-09T05:38:37.010Z,1.13
2022-09-09T05:41:04.423Z,0.80
2022-09-09T05:43:32.669Z,1.02
2022-09-09T05:46:09.027Z,0.68
2022-09-09T05:48:40.766Z,0.80
2022-09-09T05:51:11.663Z,0.68
2022-09-09T05:53:38.410Z,1.17
2022-09-09T05:56:07.587Z,0.75
2022-09-09T05:58:35.459Z,0.70
2022-09-09T06:01:07.686Z,0.63
2022-09-09T06:03:36.168Z,0.80
2022-09-09T06:06:06.616Z,1.00
2022-09-09T06:08:39.462Z,0.70
2022-09-09T06:11:11.735Z,1.55
2022-09-09T06:13:40.622Z,0.75
2022-09-09T06:16:10.434Z,0.70
2022-09-09T06:18:37.092Z,0.80
2022-09-09T06:21:06.088Z,0.70
2022-09-09T06:23:32.590Z,0.75
2022-09-09T06:26:07.459Z,0.63
2022-09-09T06:28:35.002Z,0.82
2022-09-09T06:31:02.979Z,0.65
2022-09-09T06:33:36.031Z,0.47
2022-09-09T06:36:04.832Z,0.52
2022-09-09T06:38:31.452Z,0.73
2022-09-09T06:41:00.599Z,0.55
2022-09-09T06:43:27.597Z,0.60
2022-09-09T06:46:06.737Z,0.75
2022-09-09T06:48:33.759Z,0.57
2022-09-09T06:51:09.462Z,0.90
2022-09-09T06:53:37.165Z,0.73
2022-09-09T06:56:44.612Z,0.60
2022-09-09T06:59:13.107Z,0.60
2022-09-09T07:01:55.822Z,0.77
2022-09-09T07:04:22.891Z,0.60
2022-09-09T07:06:49.406Z,0.75
2022-09-09T07:09:17.270Z,0.70
2022-09-09T07:11:46.460Z,0.90
2022-09-09T07:14:16.821Z,0.60
2022-09-09T07:16:43.978Z,0.70
2022-09-09T07:19:12.183Z,0.90
2022-09-09T07:21:38.959Z,0.45
2022-09-09T07:24:08.417Z,0.50
2022-09-09T07:26:35.513Z,0.40
2022-09-09T07:29:03.345Z,0.60
2022-09-09T07:31:32.370Z,0.60
2022-09-09T07:34:00.871Z,0.60
2022-09-09T07:36:33.813Z,0.43
2022-09-09T07:39:26.547Z,0.50
2022-09-09T07:41:55.654Z,0.80
2022-09-09T07:44:24.357Z,0.80
2022-09-09T07:46:50.992Z,0.52
2022-09-09T07:49:22.759Z,0.70
2022-09-09T07:51:53.087Z,0.52
2022-09-09T07:54:21.650Z,0.60
2022-09-09T07:56:48.275Z,0.82
2022-09-09T07:59:15.142Z,0.85
2022-09-09T08:01:50.064Z,0.70
2022-09-09T08:04:19.893Z,0.40
2022-09-09T08:06:55.862Z,0.40
2022-09-09T08:09:25.943Z,0.70
2022-09-09T08:11:52.512Z,0.75
2022-09-09T08:14:19.503Z,0.40
2022-09-09T08:16:48.629Z,0.30
2022-09-09T08:19:18.927Z,0.77
2022-09-09T08:21:46.131Z,0.68
2022-09-09T08:24:16.015Z,0.55
2022-09-09T08:26:45.556Z,0.60
2022-09-09T08:29:14.869Z,0.68
2022-09-09T08:32:01.157Z,0.88
2022-09-09T08:34:28.181Z,0.93
2022-09-09T08:36:55.542Z,0.82
2022-09-09T08:39:22.879Z,0.60
2022-09-09T08:42:07.710Z,0.47
2022-09-09T08:44:39.964Z,0.60
2022-09-09T08:47:31.780Z,0.50
2022-09-09T08:50:25.875Z,0.57
2022-09-09T08:53:09.727Z,0.90
2022-09-09T08:55:48.199Z,0.30
2022-09-09T08:58:19.713Z,0.70
2022-09-09T09:00:55.584Z,0.50
2022-09-09T09:03:54.230Z,0.63
2022-09-09T09:06:20.727Z,0.50
2022-09-09T09:09:03.553Z,0.60
2022-09-09T09:11:49.502Z,0.40
2022-09-09T09:14:23.663Z,0.63
2022-09-09T09:17:00.428Z,0.70
2022-09-09T09:19:29.548Z,0.82
2022-09-09T09:22:32.586Z,0.50
2022-09-09T09:25:25.015Z,0.75
2022-09-09T09:28:06.864Z,0.50
2022-09-09T09:30:40.812Z,0.50
2022-09-09T09:33:12.300Z,0.70
2022-09-09T09:35:42.906Z,0.75
2022-09-09T09:41:12.483Z,1.08
2022-09-09T09:43:43.702Z,0.75
2022-09-09T09:46:24.534Z,0.88
2022-09-09T09:48:59.031Z,0.70
2022-09-09T09:51:27.184Z,0.82
2022-09-09T09:53:54.955Z,0.60
2022-09-09T09:56:33.504Z,0.80
2022-09-09T09:59:00.132Z,0.80
2022-09-09T10:01:28.829Z,0.88
2022-09-09T10:03:59.928Z,0.85
2022-09-09T10:06:34.927Z,0.32
2022-09-09T10:11:35.323Z,0.57
2022-09-09T10:14:19.879Z,0.82
2022-09-09T10:17:09.608Z,0.93
2022-09-09T10:19:38.018Z,0.70
2022-09-09T10:22:33.043Z,0.77
2022-09-09T10:25:26.757Z,0.63
2022-09-09T10:28:29.348Z,0.60
2022-09-09T10:31:33.458Z,0.70
2022-09-09T10:34:56.736Z,0.60
2022-09-09T10:37:43.992Z,0.60
2022-09-09T10:40:52.351Z,0.73
2022-09-09T10:43:30.751Z,0.50
2022-09-09T10:46:37.072Z,0.55
2022-09-09T10:49:34.575Z,0.40
2022-09-09T10:52:16.662Z,0.43
2022-09-09T10:55:23.828Z,0.50
2022-09-09T10:57:59.246Z,0.52
2022-09-09T11:00:40.972Z,0.73
2022-09-09T11:03:12.998Z,0.70
2022-09-09T11:05:50.660Z,0.75
2022-09-09T11:11:04.708Z,0.70
2022-09-09T11:13:57.474Z,1.02
2022-09-09T11:16:33.998Z,0.50
2022-09-09T11:19:12.453Z,0.65
2022-09-09T11:21:46.888Z,0.68
2022-09-09T11:24:39.121Z,0.77
2022-09-09T11:27:38.643Z,0.93
2022-09-09T11:30:05.287Z,0.50
2022-09-09T11:32:56.232Z,0.75
2022-09-09T11:35:35.534Z,0.70
2022-09-09T11:38:26.208Z,0.75
2022-09-09T11:41:03.127Z,0.52
2022-09-09T11:43:38.523Z,0.82
2022-09-09T11:46:05.566Z,0.60
2022-09-09T11:48:36.671Z,0.77
2022-09-09T11:51:06.241Z,0.40
2022-09-09T11:53:33.416Z,0.70
2022-09-09T11:56:08.134Z,0.70
2022-09-09T11:58:40.214Z,0.55
2022-09-09T12:01:29.793Z,0.70
2022-09-09T12:04:09.206Z,0.80
2022-09-09T12:06:57.024Z,0.60
2022-09-09T12:09:52.763Z,0.73
2022-09-09T12:14:56.571Z,0.73
2022-09-09T12:17:25.897Z,0.85
2022-09-09T12:20:15.531Z,0.70
2022-09-09T12:23:01.938Z,1.20
2022-09-09T12:25:49.979Z,0.70
2022-09-09T12:28:20.915Z,0.82
2022-09-09T12:31:03.838Z,0.50
2022-09-09T12:33:40.524Z,0.73
2022-09-09T12:36:13.327Z,0.63
2022-09-09T12:38:42.003Z,0.77
2022-09-09T12:41:40.682Z,0.98
2022-09-09T12:44:10.765Z,0.90
2022-09-09T12:46:47.747Z,1.25
2022-09-09T12:49:35.484Z,0.88
2022-09-09T12:52:08.877Z,1.05
2022-09-09T12:54:37.506Z,0.73
2022-09-09T12:57:06.085Z,1.23
2022-09-09T12:59:41.035Z,1.33
2022-09-09T13:02:18.776Z,1.00
2022-09-09T13:04:45.608Z,1.40
2022-09-09T13:07:13.098Z,1.00
2022-09-09T13:09:39.954Z,1.20
2022-09-09T13:12:20.553Z,1.10
2022-09-09T13:14:51.923Z,1.40
2022-09-09T13:17:32.558Z,1.40
2022-09-09T13:19:59.270Z,1.35
2022-09-09T13:22:32.078Z,1.20
2022-09-09T13:25:06.584Z,1.08
2022-09-09T13:27:39.578Z,1.10
2022-09-09T13:30:33.273Z,1.52
2022-09-09T13:33:12.094Z,1.20
2022-09-09T13:35:56.412Z,1.63
2022-09-09T13:38:27.464Z,1.45
2022-09-09T13:41:22.394Z,1.40
2022-09-09T13:43:49.291Z,1.40
2022-09-09T13:46:28.661Z,1.27
2022-09-09T13:49:19.580Z,1.40
2022-09-09T13:51:48.642Z,1.40
2022-09-09T13:54:17.227Z,1.45
2022-09-09T13:56:44.508Z,1.40
2022-09-09T13:59:16.722Z,1.38
2022-09-09T14:01:43.455Z,1.50
2022-09-09T14:04:12.196Z,1.33
2022-09-09T14:06:40.481Z,1.33
2022-09-09T14:09:08.227Z,1.10
2022-09-09T14:11:34.771Z,1.38
2022-09-09T14:14:01.996Z,1.30
2022-09-09T14:16:30.274Z,1.38
2022-09-09T14:19:00.257Z,1.63
2022-09-09T14:21:28.164Z,1.40
2022-09-09T14:23:55.052Z,1.50
2022-09-09T14:26:25.751Z,1.25
2022-09-09T14:28:56.366Z,1.67
2022-09-09T14:31:24.374Z,1.42
2022-09-09T14:33:52.028Z,1.30
2022-09-09T14:36:18.680Z,1.10
2022-09-09T14:38:45.276Z,1.60
2022-09-09T14:41:13.550Z,1.20
2022-09-09T14:43:40.848Z,1.20
2022-09-09T14:46:12.870Z,1.50
2022-09-09T14:48:42.860Z,1.73
2022-09-09T14:51:16.250Z,1.20
2022-09-09T14:53:44.391Z,1.40
2022-09-09T14:56:13.903Z,1.30
2022-09-09T14:58:40.456Z,1.23
2022-09-09T15:01:11.978Z,1.60
2022-09-09T15:03:44.366Z,1.60
2022-09-09T15:06:13.194Z,1.50
2022-09-09T15:08:42.897Z,1.55
2022-09-09T15:11:11.632Z,1.73
2022-09-09T15:13:40.312Z,1.15
2022-09-09T15:16:15.453Z,1.50
2022-09-09T15:21:16.512Z,1.58
2022-09-09T15:23:43.990Z,1.38
2022-09-09T15:26:11.378Z,1.40
2022-09-09T15:28:39.164Z,1.58
2022-09-09T15:31:27.114Z,1.50
2022-09-09T15:34:01.882Z,1.58
2022-09-09T15:36:29.807Z,1.40
2022-09-09T15:38:56.788Z,1.60
2022-09-09T15:41:24.395Z,1.02
2022-09-09T15:43:53.036Z,0.95
2022-09-09T15:46:34.129Z,1.10
2022-09-09T15:49:10.222Z,1.10
2022-09-09T15:51:42.710Z,1.30
2022-09-09T15:54:13.284Z,1.27
2022-09-09T15:56:40.797Z,1.65
2022-09-09T15:59:07.598Z,1.45
2022-09-09T16:01:36.439Z,1.13
2022-09-09T16:04:03.705Z,1.10
2022-09-09T16:06:30.743Z,1.33
2022-09-09T16:08:59.323Z,1.23
2022-09-09T16:11:28.658Z,1.00
2022-09-09T16:13:56.379Z,1.20
2022-09-09T16:16:25.758Z,1.80
2022-09-09T16:18:57.406Z,1.30
2022-09-09T16:21:26.739Z,1.00
2022-09-09T16:23:56.648Z,1.20
2022-09-09T16:26:24.099Z,1.30
2022-09-09T16:28:50.867Z,1.40
2022-09-09T16:31:20.327Z,1.23
2022-09-09T16:33:48.661Z,1.17
2022-09-09T16:36:17.847Z,1.25
2022-09-09T16:38:44.874Z,1.45
2022-09-09T16:41:13.129Z,1.50
2022-09-09T16:43:41.445Z,1.42
2022-09-09T16:46:28.657Z,0.85
2022-09-09T16:48:57.825Z,1.30
2022-09-09T16:51:32.143Z,1.20
2022-09-09T16:54:01.319Z,1.60
2022-09-09T16:56:30.944Z,1.00
2022-09-09T16:58:59.588Z,1.45
2022-09-09T17:01:32.542Z,1.30
2022-09-09T17:04:02.096Z,1.40
2022-09-09T17:06:30.507Z,1.30
2022-09-09T17:09:05.268Z,1.25
2022-09-09T17:11:31.878Z,1.20
2022-09-09T17:13:59.471Z,1.40
2022-09-09T17:16:29.109Z,1.45
2022-09-09T17:18:57.326Z,1.52
2022-09-09T17:21:26.464Z,1.67
2022-09-09T17:23:55.151Z,1.77
2022-09-09T17:26:23.926Z,1.00
2022-09-09T17:28:50.450Z,1.48
2022-09-09T17:31:19.110Z,1.63
2022-09-09T17:33:49.025Z,0.90
2022-09-09T17:36:17.297Z,1.40
2022-09-09T17:38:45.239Z,1.40
2022-09-09T17:41:21.443Z,1.58
2022-09-09T17:43:48.406Z,1.50
2022-09-09T17:46:23.069Z,1.73
2022-09-09T17:48:52.721Z,1.42
2022-09-09T17:51:25.339Z,1.60
2022-09-09T17:53:53.245Z,1.45
2022-09-09T17:56:21.423Z,1.67
2022-09-09T17:58:51.517Z,1.40
2022-09-09T18:01:21.571Z,1.30
2022-09-09T18:03:50.594Z,2.30
2022-09-09T18:06:20.786Z,2.38
2022-09-09T18:08:53.157Z,2.08
2022-09-09T18:11:21.737Z,1.50
2022-09-09T18:13:52.607Z,1.70
2022-09-09T18:16:19.681Z,1.83
2022-09-09T18:18:47.074Z,1.58
2022-09-09T18:21:13.732Z,1.50
2022-09-09T18:23:54.731Z,1.90
2022-09-09T18:26:25.883Z,1.48
2022-09-09T18:28:54.526Z,1.65
2022-09-09T18:31:27.150Z,2.00
2022-09-09T18:33:54.803Z,1.80
2022-09-09T18:36:24.073Z,1.85
2022-09-09T18:38:50.938Z,1.60
2022-09-09T18:41:21.748Z,1.67
2022-09-09T18:43:50.847Z,2.35
2022-09-09T18:46:18.777Z,1.95
2022-09-09T18:48:46.705Z,2.50
2022-09-09T18:51:16.323Z,2.25
2022-09-09T18:53:43.475Z,1.90
2022-09-09T18:56:12.574Z,2.20
2022-09-09T18:58:39.760Z,1.73
2022-09-09T19:01:13.846Z,1.70
2022-09-09T19:03:41.343Z,1.50
2022-09-09T19:06:10.918Z,2.15
2022-09-09T19:08:39.016Z,1.80
2022-09-09T19:11:08.689Z,1.52
2022-09-09T19:13:35.851Z,1.90
2022-09-09T19:16:06.196Z,1.60
2022-09-09T19:18:32.796Z,1.67
2022-09-09T19:21:13.548Z,1.77
2022-09-09T19:23:41.560Z,1.80
2022-09-09T19:26:08.622Z,1.90
2022-09-09T19:28:36.145Z,2.00
2022-09-09T19:31:07.541Z,1.65
2022-09-09T19:33:35.922Z,1.55
2022-09-09T19:36:06.503Z,1.60
2022-09-09T19:38:34.227Z,1.70
2022-09-09T19:41:09.202Z,1.60
2022-09-09T19:43:36.522Z,1.65
2022-09-09T19:46:06.680Z,1.67
2022-09-09T19:48:38.932Z,2.00
2022-09-09T19:51:11.223Z,1.80
2022-09-09T19:53:49.310Z,1.85
2022-09-09T19:56:18.422Z,1.58
2022-09-09T19:58:46.798Z,1.45
2022-09-09T20:01:16.973Z,1.88
2022-09-09T20:03:46.423Z,1.92
2022-09-09T20:06:16.843Z,2.00
2022-09-09T20:08:46.128Z,1.75
2022-09-09T20:11:14.147Z,1.70
2022-09-09T20:13:40.926Z,1.73
2022-09-09T20:16:14.745Z,2.17
2022-09-09T20:18:47.601Z,1.77
2022-09-09T20:21:17.923Z,2.00
2022-09-09T20:23:44.641Z,1.65
2022-09-09T20:26:13.185Z,2.10
2022-09-09T20:28:42.337Z,2.67
2022-09-09T20:31:11.946Z,2.08
2022-09-09T20:33:41.423Z,2.20
2022-09-09T20:36:15.752Z,2.03
2022-09-09T20:38:43.302Z,1.90
2022-09-09T20:41:14.460Z,2.00
2022-09-09T20:43:47.382Z,1.88
2022-09-09T20:46:13.959Z,2.42
2022-09-09T20:48:40.684Z,2.38
2022-09-09T20:51:07.263Z,1.83
2022-09-09T20:53:34.064Z,1.98
2022-09-09T20:56:04.014Z,2.20
2022-09-09T20:58:34.100Z,1.90
2022-09-09T21:01:01.584Z,2.20
2022-09-09T21:03:31.094Z,2.40
2022-09-09T21:05:58.867Z,1.90
2022-09-09T21:08:27.160Z,2.00
2022-09-09T21:10:54.675Z,2.15
2022-09-09T21:13:22.203Z,1.70
2022-09-09T21:15:48.837Z,1.98
2022-09-09T21:18:15.492Z,2.30
2022-09-09T21:20:43.410Z,1.83
2022-09-09T21:23:11.861Z,1.88
2022-09-09T21:25:38.817Z,1.70
2022-09-09T21:28:06.287Z,1.63
2022-09-09T21:30:41.968Z,1.90
2022-09-09T21:33:11.385Z,2.10
2022-09-09T21:35:39.563Z,3.35
2022-09-09T21:38:07.497Z,1.83
2022-09-09T21:40:38.295Z,1.90
2022-09-09T21:43:06.097Z,1.83
2022-09-09T21:45:35.040Z,2.13
2022-09-09T21:48:02.412Z,1.73
2022-09-09T21:50:29.432Z,2.05
2022-09-09T21:52:55.965Z,1.65
2022-09-09T21:55:22.625Z,2.20
2022-09-09T21:57:50.452Z,1.70
2022-09-09T22:00:18.180Z,2.03
2022-09-09T22:02:45.264Z,2.30
2022-09-09T22:05:11.864Z,2.65
2022-09-09T22:07:40.107Z,2.10
2022-09-09T22:10:07.705Z,2.22
2022-09-09T22:12:35.154Z,2.00
2022-09-09T22:15:01.688Z,2.08
2022-09-09T22:17:28.288Z,1.90
2022-09-09T22:19:54.803Z,2.28
2022-09-09T22:22:21.544Z,2.30
2022-09-09T22:24:48.075Z,2.10
2022-09-09T22:27:15.762Z,2.25
2022-09-09T22:29:42.503Z,2.15
2022-09-09T22:32:10.089Z,2.13
2022-09-09T22:34:40.052Z,2.53
2022-09-09T22:37:07.357Z,1.70
2022-09-09T22:39:34.210Z,2.17
2022-09-09T22:42:01.047Z,2.03
2022-09-09T22:44:28.007Z,1.90
2022-09-09T22:46:55.728Z,2.33
2022-09-09T22:49:23.866Z,2.38
2022-09-09T22:51:50.497Z,2.42
2022-09-09T22:54:22.969Z,2.50
2022-09-09T22:56:53.230Z,2.13
2022-09-09T22:59:20.317Z,2.40
2022-09-09T23:01:47.461Z,2.60
2022-09-09T23:04:14.029Z,2.10
2022-09-09T23:06:43.186Z,2.25
2022-09-09T23:09:11.778Z,2.55
2022-09-09T23:11:38.830Z,2.50
2022-09-09T23:14:07.698Z,2.40
2022-09-09T23:16:39.607Z,2.50
2022-09-09T23:19:12.238Z,2.42
2022-09-09T23:21:40.614Z,2.10
2022-09-09T23:24:08.664Z,2.42
2022-09-09T23:26:35.198Z,2.70
2022-09-09T23:29:02.525Z,2.70
2022-09-09T23:31:33.156Z,2.30
2022-09-09T23:34:01.362Z,2.97
2022-09-09T23:36:32.463Z,2.50
2022-09-09T23:39:02.145Z,2.83
2022-09-09T23:41:29.475Z,2.55
2022-09-09T23:43:56.160Z,2.42
2022-09-09T23:46:27.370Z,2.60
2022-09-09T23:48:54.733Z,2.22
2022-09-09T23:51:23.738Z,2.75
2022-09-09T23:53:53.014Z,2.05
2022-09-09T23:56:27.661Z,2.38
2022-09-09T23:58:55.301Z,2.63
